Terminal Aerodrome Forecast
Issued by NWS Wilmington, NC

Home | Current Version | Previous Version | Text Only | Print | Product List | Glossary On
Versions: 1 2 3 4 5 6 7 8 9 10 11 12 13 14
000
FTUS42 KILM 231700 CCA
TAFMYR
TAF COR
KMYR 231722Z 2318/2418 12009KT 4SM RA BR BKN006 BKN035
     FM232000 14010KT 3SM RA BR BKN006 OVC015
     FM240200 17017KT 3SM SHRA BR BKN010 OVC025
      TEMPO 2402/2405 20020G30KT 1SM +TSRA BKN014CB
     FM240700 20012KT P6SM VCSH SCT006 BKN016
      TEMPO 2407/2411 2SM BR BKN004
     FM241100 21012G16KT P6SM BKN006=

USA.gov is the U.S. government's official web portal to all federal, state and local government web resources and services.